sensor_id;sensor_type;location;lat;lon;timestamp;temperature;humidity
64705;DHT22;51131;52.298;13.686;2022-08-03T00:00:20;21.40;74.90
64705;DHT22;51131;52.298;13.686;2022-08-03T00:02:49;21.40;74.90
64705;DHT22;51131;52.298;13.686;2022-08-03T00:05:16;21.40;74.90
64705;DHT22;51131;52.298;13.686;2022-08-03T00:07:43;21.40;74.90
64705;DHT22;51131;52.298;13.686;2022-08-03T00:10:09;21.40;74.90
64705;DHT22;51131;52.298;13.686;2022-08-03T00:12:37;21.40;75.00
64705;DHT22;51131;52.298;13.686;2022-08-03T00:15:04;21.40;75.00
64705;DHT22;51131;52.298;13.686;2022-08-03T00:17:42;21.40;75.00
64705;DHT22;51131;52.298;13.686;2022-08-03T00:20:19;21.40;75.00
64705;DHT22;51131;52.298;13.686;2022-08-03T00:22:46;21.40;75.00
64705;DHT22;51131;52.298;13.686;2022-08-03T00:25:13;21.40;74.90
64705;DHT22;51131;52.298;13.686;2022-08-03T00:27:40;21.50;75.00
64705;DHT22;51131;52.298;13.686;2022-08-03T00:30:07;21.50;75.00
64705;DHT22;51131;52.298;13.686;2022-08-03T00:32:34;21.50;75.00
64705;DHT22;51131;52.298;13.686;2022-08-03T00:35:01;21.50;74.90
64705;DHT22;51131;52.298;13.686;2022-08-03T00:37:35;21.50;74.90
64705;DHT22;51131;52.298;13.686;2022-08-03T00:40:08;21.60;75.00
64705;DHT22;51131;52.298;13.686;2022-08-03T00:42:44;21.60;75.00
64705;DHT22;51131;52.298;13.686;2022-08-03T00:45:11;21.50;74.80
64705;DHT22;51131;52.298;13.686;2022-08-03T00:47:38;21.60;75.00
64705;DHT22;51131;52.298;13.686;2022-08-03T00:50:05;21.60;74.90
64705;DHT22;51131;52.298;13.686;2022-08-03T00:52:32;21.60;74.90
64705;DHT22;51131;52.298;13.686;2022-08-03T00:55:00;21.60;74.90
64705;DHT22;51131;52.298;13.686;2022-08-03T00:57:27;21.60;74.90
64705;DHT22;51131;52.298;13.686;2022-08-03T00:59:54;21.60;74.80
64705;DHT22;51131;52.298;13.686;2022-08-03T01:02:21;21.90;75.10
64705;DHT22;51131;52.298;13.686;2022-08-03T01:04:48;21.60;74.80
64705;DHT22;51131;52.298;13.686;2022-08-03T01:07:20;21.80;75.00
64705;DHT22;51131;52.298;13.686;2022-08-03T01:09:58;21.60;74.90
64705;DHT22;51131;52.298;13.686;2022-08-03T01:14:57;21.60;74.90
64705;DHT22;51131;52.298;13.686;2022-08-03T01:18:10;21.60;75.00
64705;DHT22;51131;52.298;13.686;2022-08-03T01:20:16;21.50;74.90
64705;DHT22;51131;52.298;13.686;2022-08-03T01:22:54;21.60;75.00
64705;DHT22;51131;52.298;13.686;2022-08-03T01:25:33;21.60;75.00
64705;DHT22;51131;52.298;13.686;2022-08-03T01:30:49;21.60;75.00
64705;DHT22;51131;52.298;13.686;2022-08-03T01:33:18;21.60;75.00
64705;DHT22;51131;52.298;13.686;2022-08-03T01:35:58;21.60;75.10
64705;DHT22;51131;52.298;13.686;2022-08-03T01:38:27;21.60;75.10
64705;DHT22;51131;52.298;13.686;2022-08-03T01:40:55;21.60;75.20
64705;DHT22;51131;52.298;13.686;2022-08-03T01:43:23;21.60;75.20
64705;DHT22;51131;52.298;13.686;2022-08-03T01:46:10;21.50;75.10
64705;DHT22;51131;52.298;13.686;2022-08-03T01:48:37;21.60;75.20
64705;DHT22;51131;52.298;13.686;2022-08-03T01:51:05;21.60;75.30
64705;DHT22;51131;52.298;13.686;2022-08-03T01:53:33;21.50;75.10
64705;DHT22;51131;52.298;13.686;2022-08-03T01:56:00;21.50;75.20
64705;DHT22;51131;52.298;13.686;2022-08-03T01:58:28;21.50;75.90
64705;DHT22;51131;52.298;13.686;2022-08-03T02:00:55;21.80;75.50
64705;DHT22;51131;52.298;13.686;2022-08-03T02:03:27;21.50;75.20
64705;DHT22;51131;52.298;13.686;2022-08-03T02:05:55;21.70;75.40
64705;DHT22;51131;52.298;13.686;2022-08-03T02:08:43;22.30;76.00
64705;DHT22;51131;52.298;13.686;2022-08-03T02:11:10;21.50;75.30
64705;DHT22;51131;52.298;13.686;2022-08-03T02:13:38;21.50;75.30
64705;DHT22;51131;52.298;13.686;2022-08-03T02:16:05;21.50;75.20
64705;DHT22;51131;52.298;13.686;2022-08-03T02:18:32;21.50;75.30
64705;DHT22;51131;52.298;13.686;2022-08-03T02:21:00;21.50;75.30
64705;DHT22;51131;52.298;13.686;2022-08-03T02:23:36;22.00;75.80
64705;DHT22;51131;52.298;13.686;2022-08-03T02:26:03;22.80;76.60
64705;DHT22;51131;52.298;13.686;2022-08-03T02:28:33;21.60;75.40
64705;DHT22;51131;52.298;13.686;2022-08-03T02:31:02;21.50;75.40
64705;DHT22;51131;52.298;13.686;2022-08-03T02:33:31;21.50;75.40
64705;DHT22;51131;52.298;13.686;2022-08-03T02:35:59;22.00;75.80
64705;DHT22;51131;52.298;13.686;2022-08-03T02:38:33;21.50;75.40
64705;DHT22;51131;52.298;13.686;2022-08-03T02:41:03;21.50;75.40
64705;DHT22;51131;52.298;13.686;2022-08-03T02:43:30;21.50;75.40
64705;DHT22;51131;52.298;13.686;2022-08-03T02:46:18;21.50;75.40
64705;DHT22;51131;52.298;13.686;2022-08-03T02:48:46;21.50;75.40
64705;DHT22;51131;52.298;13.686;2022-08-03T02:51:14;21.50;75.40
64705;DHT22;51131;52.298;13.686;2022-08-03T02:53:42;21.50;75.50
64705;DHT22;51131;52.298;13.686;2022-08-03T02:56:10;21.50;75.40
64705;DHT22;51131;52.298;13.686;2022-08-03T02:58:38;21.50;75.40
64705;DHT22;51131;52.298;13.686;2022-08-03T03:01:05;21.40;75.30
64705;DHT22;51131;52.298;13.686;2022-08-03T03:03:32;21.50;75.40
64705;DHT22;51131;52.298;13.686;2022-08-03T03:06:10;22.10;76.00
64705;DHT22;51131;52.298;13.686;2022-08-03T03:08:40;21.50;75.50
64705;DHT22;51131;52.298;13.686;2022-08-03T03:11:07;21.50;75.40
64705;DHT22;51131;52.298;13.686;2022-08-03T03:13:34;21.40;75.30
64705;DHT22;51131;52.298;13.686;2022-08-03T03:16:02;21.40;75.30
64705;DHT22;51131;52.298;13.686;2022-08-03T03:18:30;21.40;75.30
64705;DHT22;51131;52.298;13.686;2022-08-03T03:20:58;21.40;75.30
64705;DHT22;51131;52.298;13.686;2022-08-03T03:23:26;21.40;75.30
64705;DHT22;51131;52.298;13.686;2022-08-03T03:25:53;21.40;75.40
64705;DHT22;51131;52.298;13.686;2022-08-03T03:28:22;21.40;75.30
64705;DHT22;51131;52.298;13.686;2022-08-03T03:30:49;21.40;75.40
64705;DHT22;51131;52.298;13.686;2022-08-03T03:33:19;21.40;75.30
64705;DHT22;51131;52.298;13.686;2022-08-03T03:35:45;21.40;75.40
64705;DHT22;51131;52.298;13.686;2022-08-03T03:38:12;21.40;75.30
64705;DHT22;51131;52.298;13.686;2022-08-03T03:40:39;21.40;75.30
64705;DHT22;51131;52.298;13.686;2022-08-03T03:43:06;21.40;75.30
64705;DHT22;51131;52.298;13.686;2022-08-03T03:45:34;21.40;75.30
64705;DHT22;51131;52.298;13.686;2022-08-03T03:48:02;21.40;75.30
64705;DHT22;51131;52.298;13.686;2022-08-03T03:50:29;22.40;76.30
64705;DHT22;51131;52.298;13.686;2022-08-03T03:52:57;21.50;75.40
64705;DHT22;51131;52.298;13.686;2022-08-03T03:55:24;21.40;75.30
64705;DHT22;51131;52.298;13.686;2022-08-03T03:57:51;21.50;75.40
64705;DHT22;51131;52.298;13.686;2022-08-03T04:00:18;21.40;75.30
64705;DHT22;51131;52.298;13.686;2022-08-03T04:02:45;21.50;75.40
64705;DHT22;51131;52.298;13.686;2022-08-03T04:05:12;21.50;75.30
64705;DHT22;51131;52.298;13.686;2022-08-03T04:07:59;21.50;75.30
64705;DHT22;51131;52.298;13.686;2022-08-03T04:10:53;21.50;75.20
64705;DHT22;51131;52.298;13.686;2022-08-03T04:13:28;21.50;75.10
64705;DHT22;51131;52.298;13.686;2022-08-03T04:15:56;21.50;75.10
64705;DHT22;51131;52.298;13.686;2022-08-03T04:18:23;21.50;75.10
64705;DHT22;51131;52.298;13.686;2022-08-03T04:20:53;21.50;75.70
64705;DHT22;51131;52.298;13.686;2022-08-03T04:23:21;21.60;75.10
64705;DHT22;51131;52.298;13.686;2022-08-03T04:25:51;21.50;75.00
64705;DHT22;51131;52.298;13.686;2022-08-03T04:28:19;21.60;75.00
64705;DHT22;51131;52.298;13.686;2022-08-03T04:30:58;21.60;75.00
64705;DHT22;51131;52.298;13.686;2022-08-03T04:33:25;21.60;75.00
64705;DHT22;51131;52.298;13.686;2022-08-03T04:35:55;21.60;75.00
64705;DHT22;51131;52.298;13.686;2022-08-03T04:38:29;21.60;75.00
64705;DHT22;51131;52.298;13.686;2022-08-03T04:40:57;22.90;76.90
64705;DHT22;51131;52.298;13.686;2022-08-03T04:43:24;21.60;75.00
64705;DHT22;51131;52.298;13.686;2022-08-03T04:45:52;23.10;76.40
64705;DHT22;51131;52.298;13.686;2022-08-03T04:48:20;21.60;75.00
64705;DHT22;51131;52.298;13.686;2022-08-03T04:50:46;21.60;75.00
64705;DHT22;51131;52.298;13.686;2022-08-03T04:53:13;22.00;75.40
64705;DHT22;51131;52.298;13.686;2022-08-03T04:55:41;21.60;75.00
64705;DHT22;51131;52.298;13.686;2022-08-03T04:58:08;21.60;75.00
64705;DHT22;51131;52.298;13.686;2022-08-03T05:00:35;21.50;74.90
64705;DHT22;51131;52.298;13.686;2022-08-03T05:03:01;21.50;74.90
64705;DHT22;51131;52.298;13.686;2022-08-03T05:05:28;21.60;75.00
64705;DHT22;51131;52.298;13.686;2022-08-03T05:08:15;21.50;75.00
64705;DHT22;51131;52.298;13.686;2022-08-03T05:10:46;21.60;75.00
64705;DHT22;51131;52.298;13.686;2022-08-03T05:13:13;21.50;75.00
64705;DHT22;51131;52.298;13.686;2022-08-03T05:15:40;21.60;75.10
64705;DHT22;51131;52.298;13.686;2022-08-03T05:18:10;21.60;75.10
64705;DHT22;51131;52.298;13.686;2022-08-03T05:20:40;22.10;75.60
64705;DHT22;51131;52.298;13.686;2022-08-03T05:23:06;21.50;75.10
64705;DHT22;51131;52.298;13.686;2022-08-03T05:25:33;22.50;76.10
64705;DHT22;51131;52.298;13.686;2022-08-03T05:28:00;21.60;75.10
64705;DHT22;51131;52.298;13.686;2022-08-03T05:30:26;22.90;76.40
64705;DHT22;51131;52.298;13.686;2022-08-03T05:33:03;21.50;74.90
64705;DHT22;51131;52.298;13.686;2022-08-03T05:35:30;21.50;75.00
64705;DHT22;51131;52.298;13.686;2022-08-03T05:38:17;21.50;75.00
64705;DHT22;51131;52.298;13.686;2022-08-03T05:40:55;21.60;75.20
64705;DHT22;51131;52.298;13.686;2022-08-03T05:43:41;22.40;75.90
64705;DHT22;51131;52.298;13.686;2022-08-03T05:46:08;21.50;75.10
64705;DHT22;51131;52.298;13.686;2022-08-03T05:48:38;21.50;75.10
64705;DHT22;51131;52.298;13.686;2022-08-03T05:51:04;21.50;75.10
64705;DHT22;51131;52.298;13.686;2022-08-03T05:53:33;21.50;75.20
64705;DHT22;51131;52.298;13.686;2022-08-03T05:56:00;21.50;75.20
64705;DHT22;51131;52.298;13.686;2022-08-03T05:58:50;21.50;75.20
64705;DHT22;51131;52.298;13.686;2022-08-03T06:01:18;21.50;75.30
64705;DHT22;51131;52.298;13.686;2022-08-03T06:03:47;21.50;75.30
64705;DHT22;51131;52.298;13.686;2022-08-03T06:06:14;21.50;75.30
64705;DHT22;51131;52.298;13.686;2022-08-03T06:08:41;21.50;75.30
64705;DHT22;51131;52.298;13.686;2022-08-03T06:11:09;21.50;75.40
64705;DHT22;51131;52.298;13.686;2022-08-03T06:13:36;21.50;75.40
64705;DHT22;51131;52.298;13.686;2022-08-03T06:16:03;21.50;75.50
64705;DHT22;51131;52.298;13.686;2022-08-03T06:18:30;21.50;75.60
64705;DHT22;51131;52.298;13.686;2022-08-03T06:20:56;21.50;75.60
64705;DHT22;51131;52.298;13.686;2022-08-03T06:23:40;21.50;75.60
64705;DHT22;51131;52.298;13.686;2022-08-03T06:26:21;21.50;75.60
64705;DHT22;51131;52.298;13.686;2022-08-03T06:28:48;21.50;75.50
64705;DHT22;51131;52.298;13.686;2022-08-03T06:31:19;21.50;75.70
64705;DHT22;51131;52.298;13.686;2022-08-03T06:33:45;21.60;75.80
64705;DHT22;51131;52.298;13.686;2022-08-03T06:36:32;21.50;75.80
64705;DHT22;51131;52.298;13.686;2022-08-03T06:38:59;21.50;75.80
64705;DHT22;51131;52.298;13.686;2022-08-03T06:41:26;21.50;75.80
64705;DHT22;51131;52.298;13.686;2022-08-03T06:43:53;21.50;75.90
64705;DHT22;51131;52.298;13.686;2022-08-03T06:46:29;21.50;75.70
64705;DHT22;51131;52.298;13.686;2022-08-03T06:48:56;21.50;75.80
64705;DHT22;51131;52.298;13.686;2022-08-03T06:51:23;21.50;75.80
64705;DHT22;51131;52.298;13.686;2022-08-03T06:54:09;21.50;76.00
64705;DHT22;51131;52.298;13.686;2022-08-03T06:56:37;21.50;76.10
64705;DHT22;51131;52.298;13.686;2022-08-03T06:59:04;21.50;76.20
64705;DHT22;51131;52.298;13.686;2022-08-03T07:01:31;21.50;76.90
64705;DHT22;51131;52.298;13.686;2022-08-03T07:03:57;21.50;76.20
64705;DHT22;51131;52.298;13.686;2022-08-03T07:06:25;21.50;76.20
64705;DHT22;51131;52.298;13.686;2022-08-03T07:08:52;21.50;76.30
64705;DHT22;51131;52.298;13.686;2022-08-03T07:11:25;21.50;76.30
64705;DHT22;51131;52.298;13.686;2022-08-03T07:13:51;21.50;76.30
64705;DHT22;51131;52.298;13.686;2022-08-03T07:16:18;21.50;76.30
64705;DHT22;51131;52.298;13.686;2022-08-03T07:18:46;21.50;76.40
64705;DHT22;51131;52.298;13.686;2022-08-03T07:21:12;21.40;76.30
64705;DHT22;51131;52.298;13.686;2022-08-03T07:23:39;21.50;76.30
64705;DHT22;51131;52.298;13.686;2022-08-03T07:26:06;21.50;76.40
64705;DHT22;51131;52.298;13.686;2022-08-03T07:28:33;21.50;76.40
64705;DHT22;51131;52.298;13.686;2022-08-03T07:30:59;21.50;76.60
64705;DHT22;51131;52.298;13.686;2022-08-03T07:33:26;21.50;76.40
64705;DHT22;51131;52.298;13.686;2022-08-03T07:35:53;21.50;76.50
64705;DHT22;51131;52.298;13.686;2022-08-03T07:38:19;21.50;76.30
64705;DHT22;51131;52.298;13.686;2022-08-03T07:40:46;21.40;76.20
64705;DHT22;51131;52.298;13.686;2022-08-03T07:43:13;21.50;76.20
64705;DHT22;51131;52.298;13.686;2022-08-03T07:45:40;21.50;76.40
64705;DHT22;51131;52.298;13.686;2022-08-03T07:48:07;21.50;76.20
64705;DHT22;51131;52.298;13.686;2022-08-03T07:50:38;21.50;76.10
64705;DHT22;51131;52.298;13.686;2022-08-03T07:53:04;21.50;76.00
64705;DHT22;51131;52.298;13.686;2022-08-03T07:55:31;21.50;76.00
64705;DHT22;51131;52.298;13.686;2022-08-03T07:58:05;21.50;75.50
64705;DHT22;51131;52.298;13.686;2022-08-03T08:00:33;21.60;75.00
64705;DHT22;51131;52.298;13.686;2022-08-03T08:03:00;21.60;75.50
64705;DHT22;51131;52.298;13.686;2022-08-03T08:05:27;21.60;75.70
64705;DHT22;51131;52.298;13.686;2022-08-03T08:07:54;21.60;75.50
64705;DHT22;51131;52.298;13.686;2022-08-03T08:10:21;21.60;75.60
64705;DHT22;51131;52.298;13.686;2022-08-03T08:12:47;21.60;75.80
64705;DHT22;51131;52.298;13.686;2022-08-03T08:15:14;21.70;75.70
64705;DHT22;51131;52.298;13.686;2022-08-03T08:17:42;21.60;75.20
64705;DHT22;51131;52.298;13.686;2022-08-03T08:20:09;21.70;75.60
64705;DHT22;51131;52.298;13.686;2022-08-03T08:22:36;21.70;75.70
64705;DHT22;51131;52.298;13.686;2022-08-03T08:25:05;21.70;75.80
64705;DHT22;51131;52.298;13.686;2022-08-03T08:27:32;21.70;75.60
64705;DHT22;51131;52.298;13.686;2022-08-03T08:30:20;21.70;75.50
64705;DHT22;51131;52.298;13.686;2022-08-03T08:32:47;21.70;75.40
64705;DHT22;51131;52.298;13.686;2022-08-03T08:35:14;21.70;75.40
64705;DHT22;51131;52.298;13.686;2022-08-03T08:37:42;21.80;75.50
64705;DHT22;51131;52.298;13.686;2022-08-03T08:40:16;21.80;75.50
64705;DHT22;51131;52.298;13.686;2022-08-03T08:42:45;21.80;75.30
64705;DHT22;51131;52.298;13.686;2022-08-03T08:45:23;21.80;75.00
64705;DHT22;51131;52.298;13.686;2022-08-03T08:47:50;21.40;74.80
64705;DHT22;51131;52.298;13.686;2022-08-03T08:50:22;21.80;75.30
64705;DHT22;51131;52.298;13.686;2022-08-03T08:52:53;22.00;75.50
64705;DHT22;51131;52.298;13.686;2022-08-03T08:55:21;23.30;76.50
64705;DHT22;51131;52.298;13.686;2022-08-03T08:57:49;21.80;75.00
64705;DHT22;51131;52.298;13.686;2022-08-03T09:00:16;21.90;75.00
64705;DHT22;51131;52.298;13.686;2022-08-03T09:02:43;21.80;74.90
64705;DHT22;51131;52.298;13.686;2022-08-03T09:05:11;21.80;75.00
64705;DHT22;51131;52.298;13.686;2022-08-03T09:07:39;22.30;75.30
64705;DHT22;51131;52.298;13.686;2022-08-03T09:10:06;21.80;74.90
64705;DHT22;51131;52.298;13.686;2022-08-03T09:12:42;21.80;74.60
64705;DHT22;51131;52.298;13.686;2022-08-03T09:15:19;21.80;74.80
64705;DHT22;51131;52.298;13.686;2022-08-03T09:17:46;21.80;74.80
64705;DHT22;51131;52.298;13.686;2022-08-03T09:20:17;21.80;74.90
64705;DHT22;51131;52.298;13.686;2022-08-03T09:23:06;21.80;74.70
64705;DHT22;51131;52.298;13.686;2022-08-03T09:25:56;21.80;74.80
64705;DHT22;51131;52.298;13.686;2022-08-03T09:28:25;21.80;74.90
64705;DHT22;51131;52.298;13.686;2022-08-03T09:31:18;21.80;74.80
64705;DHT22;51131;52.298;13.686;2022-08-03T09:33:46;21.80;74.80
64705;DHT22;51131;52.298;13.686;2022-08-03T09:39:00;21.80;74.70
64705;DHT22;51131;52.298;13.686;2022-08-03T09:41:28;22.10;75.00
64705;DHT22;51131;52.298;13.686;2022-08-03T09:43:55;22.10;75.00
64705;DHT22;51131;52.298;13.686;2022-08-03T09:46:22;21.80;74.20
64705;DHT22;51131;52.298;13.686;2022-08-03T09:48:49;21.80;74.50
64705;DHT22;51131;52.298;13.686;2022-08-03T09:51:16;22.30;75.10
64705;DHT22;51131;52.298;13.686;2022-08-03T09:54:05;21.80;74.80
64705;DHT22;51131;52.298;13.686;2022-08-03T09:56:44;22.70;75.90
64705;DHT22;51131;52.298;13.686;2022-08-03T09:59:11;21.80;75.00
64705;DHT22;51131;52.298;13.686;2022-08-03T10:01:38;21.80;74.90
64705;DHT22;51131;52.298;13.686;2022-08-03T10:04:13;21.80;74.90
64705;DHT22;51131;52.298;13.686;2022-08-03T10:06:40;21.80;74.70
64705;DHT22;51131;52.298;13.686;2022-08-03T10:09:12;21.80;74.60
64705;DHT22;51131;52.298;13.686;2022-08-03T10:11:39;21.80;74.80
64705;DHT22;51131;52.298;13.686;2022-08-03T10:14:09;21.80;74.80
64705;DHT22;51131;52.298;13.686;2022-08-03T10:16:36;21.70;74.80
64705;DHT22;51131;52.298;13.686;2022-08-03T10:19:04;21.80;74.60
64705;DHT22;51131;52.298;13.686;2022-08-03T10:21:32;21.70;75.40
64705;DHT22;51131;52.298;13.686;2022-08-03T10:24:03;21.80;74.80
64705;DHT22;51131;52.298;13.686;2022-08-03T10:26:34;21.70;74.70
64705;DHT22;51131;52.298;13.686;2022-08-03T10:29:02;21.70;74.80
64705;DHT22;51131;52.298;13.686;2022-08-03T10:31:38;21.70;74.80
64705;DHT22;51131;52.298;13.686;2022-08-03T10:34:24;21.70;74.80
64705;DHT22;51131;52.298;13.686;2022-08-03T10:36:51;21.60;74.80
64705;DHT22;51131;52.298;13.686;2022-08-03T10:39:20;22.00;75.10
64705;DHT22;51131;52.298;13.686;2022-08-03T10:41:47;23.40;76.40
64705;DHT22;51131;52.298;13.686;2022-08-03T10:44:18;21.70;74.90
64705;DHT22;51131;52.298;13.686;2022-08-03T10:46:46;21.70;74.90
64705;DHT22;51131;52.298;13.686;2022-08-03T10:49:15;21.70;74.90
64705;DHT22;51131;52.298;13.686;2022-08-03T10:51:59;23.10;76.20
64705;DHT22;51131;52.298;13.686;2022-08-03T10:57:00;21.70;74.90
64705;DHT22;51131;52.298;13.686;2022-08-03T11:02:15;21.70;74.60
64705;DHT22;51131;52.298;13.686;2022-08-03T11:04:42;21.70;73.90
64705;DHT22;51131;52.298;13.686;2022-08-03T11:07:17;21.80;75.20
64705;DHT22;51131;52.298;13.686;2022-08-03T11:09:46;21.80;74.80
64705;DHT22;51131;52.298;13.686;2022-08-03T11:12:20;21.90;73.30
64705;DHT22;51131;52.298;13.686;2022-08-03T11:14:57;22.00;72.10
64705;DHT22;51131;52.298;13.686;2022-08-03T11:17:24;22.10;71.60
64705;DHT22;51131;52.298;13.686;2022-08-03T11:19:51;22.20;71.60
64705;DHT22;51131;52.298;13.686;2022-08-03T11:22:23;23.60;73.40
64705;DHT22;51131;52.298;13.686;2022-08-03T11:27:20;22.20;72.10
64705;DHT22;51131;52.298;13.686;2022-08-03T11:29:55;22.20;72.60
64705;DHT22;51131;52.298;13.686;2022-08-03T11:43:00;22.10;73.70
64705;DHT22;51131;52.298;13.686;2022-08-03T11:45:27;22.10;74.00
64705;DHT22;51131;52.298;13.686;2022-08-03T11:47:54;22.10;74.20
64705;DHT22;51131;52.298;13.686;2022-08-03T11:50:21;22.10;74.10
64705;DHT22;51131;52.298;13.686;2022-08-03T11:52:48;22.00;74.20
64705;DHT22;51131;52.298;13.686;2022-08-03T11:55:16;22.00;74.30
64705;DHT22;51131;52.298;13.686;2022-08-03T11:57:44;22.00;74.30
64705;DHT22;51131;52.298;13.686;2022-08-03T12:00:32;22.00;74.50
64705;DHT22;51131;52.298;13.686;2022-08-03T12:03:00;22.00;74.00
64705;DHT22;51131;52.298;13.686;2022-08-03T12:05:34;22.80;75.20
64705;DHT22;51131;52.298;13.686;2022-08-03T12:08:01;22.00;73.80
64705;DHT22;51131;52.298;13.686;2022-08-03T12:10:32;22.00;74.10
64705;DHT22;51131;52.298;13.686;2022-08-03T12:12:59;22.00;74.20
64705;DHT22;51131;52.298;13.686;2022-08-03T12:15:28;22.00;74.10
64705;DHT22;51131;52.298;13.686;2022-08-03T12:17:55;22.00;74.40
64705;DHT22;51131;52.298;13.686;2022-08-03T12:20:24;22.50;74.80
64705;DHT22;51131;52.298;13.686;2022-08-03T12:23:01;22.00;74.30
64705;DHT22;51131;52.298;13.686;2022-08-03T12:25:29;22.00;74.20
64705;DHT22;51131;52.298;13.686;2022-08-03T12:28:15;22.00;74.20
64705;DHT22;51131;52.298;13.686;2022-08-03T12:31:03;22.00;74.40
64705;DHT22;51131;52.298;13.686;2022-08-03T12:33:32;22.00;74.30
64705;DHT22;51131;52.298;13.686;2022-08-03T12:38:30;22.00;74.60
64705;DHT22;51131;52.298;13.686;2022-08-03T12:41:05;22.00;74.60
64705;DHT22;51131;52.298;13.686;2022-08-03T12:43:33;22.00;74.40
64705;DHT22;51131;52.298;13.686;2022-08-03T12:46:12;22.00;74.70
64705;DHT22;51131;52.298;13.686;2022-08-03T12:51:25;21.90;74.60
64705;DHT22;51131;52.298;13.686;2022-08-03T12:53:53;23.00;75.50
64705;DHT22;51131;52.298;13.686;2022-08-03T12:56:20;21.90;74.50
64705;DHT22;51131;52.298;13.686;2022-08-03T12:58:47;22.00;74.70
64705;DHT22;51131;52.298;13.686;2022-08-03T13:01:13;22.00;74.60
64705;DHT22;51131;52.298;13.686;2022-08-03T13:03:41;21.90;74.50
64705;DHT22;51131;52.298;13.686;2022-08-03T13:06:16;22.50;75.10
64705;DHT22;51131;52.298;13.686;2022-08-03T13:08:43;22.00;74.60
64705;DHT22;51131;52.298;13.686;2022-08-03T13:11:21;21.90;74.50
64705;DHT22;51131;52.298;13.686;2022-08-03T13:14:08;21.90;74.50
64705;DHT22;51131;52.298;13.686;2022-08-03T13:16:42;21.90;74.70
64705;DHT22;51131;52.298;13.686;2022-08-03T13:19:09;21.90;74.60
64705;DHT22;51131;52.298;13.686;2022-08-03T13:21:41;21.90;74.60
64705;DHT22;51131;52.298;13.686;2022-08-03T13:24:28;21.90;74.40
64705;DHT22;51131;52.298;13.686;2022-08-03T13:26:57;21.90;74.60
64705;DHT22;51131;52.298;13.686;2022-08-03T13:29:23;21.90;74.60
64705;DHT22;51131;52.298;13.686;2022-08-03T13:31:51;21.90;74.90
64705;DHT22;51131;52.298;13.686;2022-08-03T13:34:18;21.90;73.80
64705;DHT22;51131;52.298;13.686;2022-08-03T13:36:49;21.90;74.30
64705;DHT22;51131;52.298;13.686;2022-08-03T13:39:35;21.90;74.10
64705;DHT22;51131;52.298;13.686;2022-08-03T13:42:21;21.90;74.40
64705;DHT22;51131;52.298;13.686;2022-08-03T13:44:48;21.90;74.50
64705;DHT22;51131;52.298;13.686;2022-08-03T13:47:15;21.90;74.50
64705;DHT22;51131;52.298;13.686;2022-08-03T13:49:42;21.90;74.50
64705;DHT22;51131;52.298;13.686;2022-08-03T13:52:26;21.90;74.10
64705;DHT22;51131;52.298;13.686;2022-08-03T13:54:53;21.90;74.50
64705;DHT22;51131;52.298;13.686;2022-08-03T13:57:20;21.90;74.50
64705;DHT22;51131;52.298;13.686;2022-08-03T14:00:07;21.90;75.30
64705;DHT22;51131;52.298;13.686;2022-08-03T14:02:34;21.90;74.60
64705;DHT22;51131;52.298;13.686;2022-08-03T14:05:00;21.90;74.60
64705;DHT22;51131;52.298;13.686;2022-08-03T14:07:27;21.80;74.30
64705;DHT22;51131;52.298;13.686;2022-08-03T14:09:54;21.80;74.50
64705;DHT22;51131;52.298;13.686;2022-08-03T14:12:21;21.80;74.70
64705;DHT22;51131;52.298;13.686;2022-08-03T14:14:47;21.80;74.70
64705;DHT22;51131;52.298;13.686;2022-08-03T14:17:14;21.80;74.90
64705;DHT22;51131;52.298;13.686;2022-08-03T14:19:42;21.80;74.90
64705;DHT22;51131;52.298;13.686;2022-08-03T14:22:19;21.80;74.90
64705;DHT22;51131;52.298;13.686;2022-08-03T14:24:45;21.80;74.90
64705;DHT22;51131;52.298;13.686;2022-08-03T14:27:12;21.80;74.90
64705;DHT22;51131;52.298;13.686;2022-08-03T14:29:39;21.80;75.00
64705;DHT22;51131;52.298;13.686;2022-08-03T14:32:05;21.80;75.20
64705;DHT22;51131;52.298;13.686;2022-08-03T14:34:38;21.80;75.00
64705;DHT22;51131;52.298;13.686;2022-08-03T14:37:04;21.80;75.20
64705;DHT22;51131;52.298;13.686;2022-08-03T14:39:31;21.80;74.80
64705;DHT22;51131;52.298;13.686;2022-08-03T14:42:18;21.80;74.70
64705;DHT22;51131;52.298;13.686;2022-08-03T14:44:46;21.80;74.80
64705;DHT22;51131;52.298;13.686;2022-08-03T14:47:13;21.80;74.70
64705;DHT22;51131;52.298;13.686;2022-08-03T14:49:40;21.80;74.70
64705;DHT22;51131;52.298;13.686;2022-08-03T14:52:27;21.80;74.60
64705;DHT22;51131;52.298;13.686;2022-08-03T14:54:53;21.80;74.70
64705;DHT22;51131;52.298;13.686;2022-08-03T14:57:20;21.80;74.80
64705;DHT22;51131;52.298;13.686;2022-08-03T14:59:47;21.80;74.70
64705;DHT22;51131;52.298;13.686;2022-08-03T15:02:23;21.80;75.20
64705;DHT22;51131;52.298;13.686;2022-08-03T15:04:50;21.80;74.70
64705;DHT22;51131;52.298;13.686;2022-08-03T15:07:17;21.80;74.70
64705;DHT22;51131;52.298;13.686;2022-08-03T15:09:44;21.80;74.90
64705;DHT22;51131;52.298;13.686;2022-08-03T15:12:11;21.80;74.80
64705;DHT22;51131;52.298;13.686;2022-08-03T15:14:38;21.80;74.90
64705;DHT22;51131;52.298;13.686;2022-08-03T15:17:05;21.70;74.70
64705;DHT22;51131;52.298;13.686;2022-08-03T15:19:31;21.70;74.50
64705;DHT22;51131;52.298;13.686;2022-08-03T15:22:18;21.70;74.80
64705;DHT22;51131;52.298;13.686;2022-08-03T15:24:50;21.80;74.60
64705;DHT22;51131;52.298;13.686;2022-08-03T15:27:17;21.70;74.70
64705;DHT22;51131;52.298;13.686;2022-08-03T15:29:44;21.70;74.50
64705;DHT22;51131;52.298;13.686;2022-08-03T15:32:32;21.70;74.40
64705;DHT22;51131;52.298;13.686;2022-08-03T15:34:59;21.70;74.60
64705;DHT22;51131;52.298;13.686;2022-08-03T15:37:26;21.70;74.50
64705;DHT22;51131;52.298;13.686;2022-08-03T15:39:53;21.70;74.80
64705;DHT22;51131;52.298;13.686;2022-08-03T15:42:29;21.70;74.90
64705;DHT22;51131;52.298;13.686;2022-08-03T15:44:56;21.70;74.90
64705;DHT22;51131;52.298;13.686;2022-08-03T15:47:23;21.80;74.80
64705;DHT22;51131;52.298;13.686;2022-08-03T15:49:49;21.70;74.60
64705;DHT22;51131;52.298;13.686;2022-08-03T15:52:16;21.70;74.60
64705;DHT22;51131;52.298;13.686;2022-08-03T15:54:43;21.70;74.30
64705;DHT22;51131;52.298;13.686;2022-08-03T15:57:09;21.70;74.50
64705;DHT22;51131;52.298;13.686;2022-08-03T15:59:36;21.70;74.40
64705;DHT22;51131;52.298;13.686;2022-08-03T16:02:03;21.70;74.50
64705;DHT22;51131;52.298;13.686;2022-08-03T16:04:30;21.70;74.70